sensor_id;sensor_type;location;lat;lon;timestamp;pressure;altitude;pressure_sealevel;temperature;humidity
29045;BME280;16133;49.486;12.176;2024-01-30T00:00:31;98961.78;;;-5.59;100.00
29045;BME280;16133;49.486;12.176;2024-01-30T00:02:56;98960.94;;;-5.60;100.00
29045;BME280;16133;49.486;12.176;2024-01-30T00:05:22;98957.44;;;-5.59;100.00
29045;BME280;16133;49.486;12.176;2024-01-30T00:07:47;98959.19;;;-5.59;100.00
29045;BME280;16133;49.486;12.176;2024-01-30T00:10:13;98963.53;;;-5.60;100.00
29045;BME280;16133;49.486;12.176;2024-01-30T00:12:38;98955.84;;;-5.63;100.00
29045;BME280;16133;49.486;12.176;2024-01-30T00:15:04;98952.38;;;-5.62;100.00
29045;BME280;16133;49.486;12.176;2024-01-30T00:17:30;98954.19;;;-5.65;100.00
29045;BME280;16133;49.486;12.176;2024-01-30T00:19:55;98958.50;;;-5.66;100.00
29045;BME280;16133;49.486;12.176;2024-01-30T00:22:21;98955.94;;;-5.66;100.00
29045;BME280;16133;49.486;12.176;2024-01-30T00:24:46;98952.56;;;-5.68;100.00
29045;BME280;16133;49.486;12.176;2024-01-30T00:27:11;98957.72;;;-5.68;100.00
29045;BME280;16133;49.486;12.176;2024-01-30T00:29:37;98952.63;;;-5.71;100.00
29045;BME280;16133;49.486;12.176;2024-01-30T00:32:02;98953.53;;;-5.72;100.00
29045;BME280;16133;49.486;12.176;2024-01-30T00:34:27;98944.06;;;-5.73;100.00
29045;BME280;16133;49.486;12.176;2024-01-30T00:36:53;98945.88;;;-5.75;100.00
29045;BME280;16133;49.486;12.176;2024-01-30T00:39:18;98950.22;;;-5.77;100.00
29045;BME280;16133;49.486;12.176;2024-01-30T00:41:45;98944.25;;;-5.79;100.00
29045;BME280;16133;49.486;12.176;2024-01-30T00:44:10;98938.22;;;-5.80;100.00
29045;BME280;16133;49.486;12.176;2024-01-30T00:46:36;98934.81;;;-5.82;100.00
29045;BME280;16133;49.486;12.176;2024-01-30T00:49:01;98942.63;;;-5.83;100.00
29045;BME280;16133;49.486;12.176;2024-01-30T00:51:26;98941.81;;;-5.85;100.00
29045;BME280;16133;49.486;12.176;2024-01-30T00:53:54;98940.06;;;-5.85;100.00
29045;BME280;16133;49.486;12.176;2024-01-30T00:56:20;98940.06;;;-5.83;100.00
29045;BME280;16133;49.486;12.176;2024-01-30T00:58:45;98946.13;;;-5.86;100.00
29045;BME280;16133;49.486;12.176;2024-01-30T01:01:11;98948.69;;;-5.84;100.00
29045;BME280;16133;49.486;12.176;2024-01-30T01:03:36;98947.81;;;-5.83;100.00
29045;BME280;16133;49.486;12.176;2024-01-30T01:06:01;98945.25;;;-5.85;100.00
29045;BME280;16133;49.486;12.176;2024-01-30T01:08:27;98949.47;;;-5.82;100.00
29045;BME280;16133;49.486;12.176;2024-01-30T01:10:52;98953.69;;;-5.78;100.00
29045;BME280;16133;49.486;12.176;2024-01-30T01:13:18;98952.00;;;-5.79;100.00
29045;BME280;16133;49.486;12.176;2024-01-30T01:15:43;98949.47;;;-5.82;100.00
29045;BME280;16133;49.486;12.176;2024-01-30T01:18:08;98952.97;;;-5.83;100.00
29045;BME280;16133;49.486;12.176;2024-01-30T01:20:34;98949.56;;;-5.85;100.00
29045;BME280;16133;49.486;12.176;2024-01-30T01:22:59;98942.72;;;-5.86;100.00
29045;BME280;16133;49.486;12.176;2024-01-30T01:25:24;98949.72;;;-5.90;100.00
29045;BME280;16133;49.486;12.176;2024-01-30T01:27:50;98948.06;;;-5.92;100.00
29045;BME280;16133;49.486;12.176;2024-01-30T01:30:18;98949.81;;;-5.93;100.00
29045;BME280;16133;49.486;12.176;2024-01-30T01:32:51;98948.16;;;-5.95;100.00
29045;BME280;16133;49.486;12.176;2024-01-30T01:35:23;98943.91;;;-5.98;100.00
29045;BME280;16133;49.486;12.176;2024-01-30T01:37:53;98947.41;;;-5.99;100.00
29045;BME280;16133;49.486;12.176;2024-01-30T01:40:27;98943.97;;;-6.01;100.00
29045;BME280;16133;49.486;12.176;2024-01-30T01:42:53;98946.63;;;-6.02;100.00
29045;BME280;16133;49.486;12.176;2024-01-30T01:45:20;98943.22;;;-6.04;100.00
29045;BME280;16133;49.486;12.176;2024-01-30T01:47:47;98947.59;;;-6.06;100.00
29045;BME280;16133;49.486;12.176;2024-01-30T01:50:15;98948.47;;;-6.07;100.00
29045;BME280;16133;49.486;12.176;2024-01-30T01:52:44;98941.53;;;-6.05;100.00
29045;BME280;16133;49.486;12.176;2024-01-30T01:55:11;98937.97;;;-6.01;100.00
29045;BME280;16133;49.486;12.176;2024-01-30T01:57:37;98939.75;;;-6.03;100.00
29045;BME280;16133;49.486;12.176;2024-01-30T02:00:03;98931.19;;;-6.05;100.00
29045;BME280;16133;49.486;12.176;2024-01-30T02:02:30;98934.69;;;-6.06;100.00
29045;BME280;16133;49.486;12.176;2024-01-30T02:04:57;98933.84;;;-6.08;100.00
29045;BME280;16133;49.486;12.176;2024-01-30T02:07:23;98933.06;;;-6.10;100.00
29045;BME280;16133;49.486;12.176;2024-01-30T02:09:48;98931.34;;;-6.11;100.00
29045;BME280;16133;49.486;12.176;2024-01-30T02:12:14;98933.16;;;-6.13;100.00
29045;BME280;16133;49.486;12.176;2024-01-30T02:14:46;98937.47;;;-6.14;100.00
29045;BME280;16133;49.486;12.176;2024-01-30T02:17:12;98932.31;;;-6.15;100.00
29045;BME280;16133;49.486;12.176;2024-01-30T02:19:39;98925.50;;;-6.18;100.00
29045;BME280;16133;49.486;12.176;2024-01-30T02:22:04;98932.44;;;-6.20;100.00
29045;BME280;16133;49.486;12.176;2024-01-30T02:24:30;98922.16;;;-6.21;100.00
29045;BME280;16133;49.486;12.176;2024-01-30T02:26:55;98931.66;;;-6.23;100.00
29045;BME280;16133;49.486;12.176;2024-01-30T02:29:20;98924.81;;;-6.24;100.00
29045;BME280;16133;49.486;12.176;2024-01-30T02:31:46;98930.81;;;-6.24;100.00
29045;BME280;16133;49.486;12.176;2024-01-30T02:34:12;98926.50;;;-6.23;100.00
29045;BME280;16133;49.486;12.176;2024-01-30T02:36:37;98923.13;;;-6.25;100.00
29045;BME280;16133;49.486;12.176;2024-01-30T02:39:03;98922.28;;;-6.26;100.00
29045;BME280;16133;49.486;12.176;2024-01-30T02:41:28;98919.72;;;-6.28;100.00
29045;BME280;16133;49.486;12.176;2024-01-30T02:43:53;98925.81;;;-6.28;100.00
29045;BME280;16133;49.486;12.176;2024-01-30T02:46:19;98926.69;;;-6.30;100.00
29045;BME280;16133;49.486;12.176;2024-01-30T02:48:44;98932.72;;;-6.31;100.00
29045;BME280;16133;49.486;12.176;2024-01-30T02:51:09;98940.28;;;-6.24;100.00
29045;BME280;16133;49.486;12.176;2024-01-30T02:53:35;98935.13;;;-6.24;100.00
29045;BME280;16133;49.486;12.176;2024-01-30T02:56:02;98929.97;;;-6.24;100.00
29045;BME280;16133;49.486;12.176;2024-01-30T02:58:28;98930.06;;;-6.28;100.00
29045;BME280;16133;49.486;12.176;2024-01-30T03:00:53;98930.06;;;-6.28;100.00
29045;BME280;16133;49.486;12.176;2024-01-30T03:03:19;98929.25;;;-6.30;100.00
29045;BME280;16133;49.486;12.176;2024-01-30T03:05:44;98927.56;;;-6.31;100.00
29045;BME280;16133;49.486;12.176;2024-01-30T03:08:10;98916.44;;;-6.33;100.00
29045;BME280;16133;49.486;12.176;2024-01-30T03:10:35;98919.03;;;-6.34;100.00
29045;BME280;16133;49.486;12.176;2024-01-30T03:13:00;98925.09;;;-6.35;100.00
29045;BME280;16133;49.486;12.176;2024-01-30T03:15:26;98913.09;;;-6.38;100.00
29045;BME280;16133;49.486;12.176;2024-01-30T03:17:51;98920.78;;;-6.36;100.00
29045;BME280;16133;49.486;12.176;2024-01-30T03:20:16;98921.72;;;-6.37;100.00
29045;BME280;16133;49.486;12.176;2024-01-30T03:22:42;98916.56;;;-6.39;100.00
29045;BME280;16133;49.486;12.176;2024-01-30T03:25:07;98920.03;;;-6.40;100.00
29045;BME280;16133;49.486;12.176;2024-01-30T03:27:33;98913.19;;;-6.41;100.00
29045;BME280;16133;49.486;12.176;2024-01-30T03:29:58;98925.28;;;-6.43;100.00
29045;BME280;16133;49.486;12.176;2024-01-30T03:32:23;98921.00;;;-6.44;100.00
29045;BME280;16133;49.486;12.176;2024-01-30T03:34:49;98918.41;;;-6.44;100.00
29045;BME280;16133;49.486;12.176;2024-01-30T03:37:14;98920.19;;;-6.46;100.00
29045;BME280;16133;49.486;12.176;2024-01-30T03:39:39;98922.81;;;-6.47;100.00
29045;BME280;16133;49.486;12.176;2024-01-30T03:42:05;98921.13;;;-6.48;100.00
29045;BME280;16133;49.486;12.176;2024-01-30T03:44:30;98922.81;;;-6.47;100.00
29045;BME280;16133;49.486;12.176;2024-01-30T03:46:55;98916.75;;;-6.46;100.00
29045;BME280;16133;49.486;12.176;2024-01-30T03:49:21;98916.75;;;-6.46;100.00
29045;BME280;16133;49.486;12.176;2024-01-30T03:51:46;98920.19;;;-6.46;100.00
29045;BME280;16133;49.486;12.176;2024-01-30T03:54:13;98919.31;;;-6.45;100.00
29045;BME280;16133;49.486;12.176;2024-01-30T03:56:38;98926.97;;;-6.42;100.00
29045;BME280;16133;49.486;12.176;2024-01-30T03:59:03;98921.72;;;-6.39;100.00
29045;BME280;16133;49.486;12.176;2024-01-30T04:01:29;98921.66;;;-6.36;100.00
29045;BME280;16133;49.486;12.176;2024-01-30T04:03:54;98918.94;;;-6.31;100.00
29045;BME280;16133;49.486;12.176;2024-01-30T04:06:20;98922.28;;;-6.26;100.00
29045;BME280;16133;49.486;12.176;2024-01-30T04:08:45;98916.25;;;-6.26;100.00
29045;BME280;16133;49.486;12.176;2024-01-30T04:11:10;98916.25;;;-6.26;100.00
29045;BME280;16133;49.486;12.176;2024-01-30T04:13:36;98913.69;;;-6.28;100.00
29045;BME280;16133;49.486;12.176;2024-01-30T04:16:01;98915.41;;;-6.27;100.00
29045;BME280;16133;49.486;12.176;2024-01-30T04:18:27;98915.50;;;-6.30;100.00
29045;BME280;16133;49.486;12.176;2024-01-30T04:20:53;98909.38;;;-6.28;100.00
29045;BME280;16133;49.486;12.176;2024-01-30T04:23:19;98909.38;;;-6.26;100.00
29045;BME280;16133;49.486;12.176;2024-01-30T04:25:44;98916.19;;;-6.23;100.00
29045;BME280;16133;49.486;12.176;2024-01-30T04:28:10;98910.03;;;-6.19;100.00
29045;BME280;16133;49.486;12.176;2024-01-30T04:30:37;98914.28;;;-6.17;100.00
29045;BME280;16133;49.486;12.176;2024-01-30T04:33:03;98912.53;;;-6.16;100.00
29045;BME280;16133;49.486;12.176;2024-01-30T04:35:28;98909.06;;;-6.15;100.00
29045;BME280;16133;49.486;12.176;2024-01-30T04:37:54;98919.41;;;-6.15;100.00
29045;BME280;16133;49.486;12.176;2024-01-30T04:40:20;98908.22;;;-6.16;100.00
29045;BME280;16133;49.486;12.176;2024-01-30T04:42:46;98918.56;;;-6.16;100.00
29045;BME280;16133;49.486;12.176;2024-01-30T04:45:12;98915.97;;;-6.16;100.00
29045;BME280;16133;49.486;12.176;2024-01-30T04:47:37;98909.09;;;-6.17;100.00
29045;BME280;16133;49.486;12.176;2024-01-30T04:50:05;98910.00;;;-6.18;100.00
29045;BME280;16133;49.486;12.176;2024-01-30T04:52:31;98906.59;;;-6.18;100.00
29045;BME280;16133;49.486;12.176;2024-01-30T04:54:56;98902.28;;;-6.19;100.00
29045;BME280;16133;49.486;12.176;2024-01-30T05:00:43;98913.50;;;-6.20;100.00
29045;BME280;16133;49.486;12.176;2024-01-30T05:03:09;98910.91;;;-6.20;100.00
29045;BME280;16133;49.486;12.176;2024-01-30T05:05:34;98907.53;;;-6.22;100.00
29045;BME280;16133;49.486;12.176;2024-01-30T05:08:00;98902.41;;;-6.24;100.00
29045;BME280;16133;49.486;12.176;2024-01-30T05:10:25;98903.31;;;-6.25;100.00
29045;BME280;16133;49.486;12.176;2024-01-30T05:12:50;98905.06;;;-6.27;100.00
29045;BME280;16133;49.486;12.176;2024-01-30T05:15:16;98892.22;;;-6.28;100.00
29045;BME280;16133;49.486;12.176;2024-01-30T05:17:41;98887.94;;;-6.30;100.00
29045;BME280;16133;49.486;12.176;2024-01-30T05:20:07;98896.59;;;-6.32;100.00
29045;BME280;16133;49.486;12.176;2024-01-30T05:22:32;98900.97;;;-6.34;100.00
29045;BME280;16133;49.486;12.176;2024-01-30T05:24:58;98897.53;;;-6.35;100.00
29045;BME280;16133;49.486;12.176;2024-01-30T05:27:23;98903.63;;;-6.37;100.00
29045;BME280;16133;49.486;12.176;2024-01-30T05:29:48;98893.31;;;-6.39;100.00
29045;BME280;16133;49.486;12.176;2024-01-30T05:32:15;98897.69;;;-6.41;100.00
29045;BME280;16133;49.486;12.176;2024-01-30T05:34:40;98889.13;;;-6.43;100.00
29045;BME280;16133;49.486;12.176;2024-01-30T05:37:05;98898.56;;;-6.42;100.00
29045;BME280;16133;49.486;12.176;2024-01-30T05:39:31;98896.00;;;-6.42;100.00
29045;BME280;16133;49.486;12.176;2024-01-30T05:41:58;98899.47;;;-6.43;100.00
29045;BME280;16133;49.486;12.176;2024-01-30T05:44:23;98896.88;;;-6.43;100.00
29045;BME280;16133;49.486;12.176;2024-01-30T05:46:48;98894.34;;;-6.44;100.00
29045;BME280;16133;49.486;12.176;2024-01-30T05:49:14;98902.00;;;-6.41;100.00
29045;BME280;16133;49.486;12.176;2024-01-30T05:51:39;98890.84;;;-6.42;100.00
29045;BME280;16133;49.486;12.176;2024-01-30T05:54:04;98895.16;;;-6.42;100.00
29045;BME280;16133;49.486;12.176;2024-01-30T05:56:30;98891.72;;;-6.43;100.00
29045;BME280;16133;49.486;12.176;2024-01-30T05:58:55;98893.50;;;-6.45;100.00
29045;BME280;16133;49.486;12.176;2024-01-30T06:01:20;98900.41;;;-6.45;100.00
29045;BME280;16133;49.486;12.176;2024-01-30T06:03:46;98895.25;;;-6.47;100.00
29045;BME280;16133;49.486;12.176;2024-01-30T06:06:11;98899.63;;;-6.49;100.00
29045;BME280;16133;49.486;12.176;2024-01-30T06:08:37;98892.75;;;-6.50;100.00
29045;BME280;16133;49.486;12.176;2024-01-30T06:11:02;98899.72;;;-6.52;100.00
29045;BME280;16133;49.486;12.176;2024-01-30T06:13:27;98901.47;;;-6.54;100.00
29045;BME280;16133;49.486;12.176;2024-01-30T06:15:53;98911.78;;;-6.54;100.00
29045;BME280;16133;49.486;12.176;2024-01-30T06:18:18;98910.06;;;-6.53;100.00
29045;BME280;16133;49.486;12.176;2024-01-30T06:20:44;98915.19;;;-6.52;100.00
29045;BME280;16133;49.486;12.176;2024-01-30T06:23:09;98909.97;;;-6.50;100.00
29045;BME280;16133;49.486;12.176;2024-01-30T06:25:38;98914.25;;;-6.48;100.00
29045;BME280;16133;49.486;12.176;2024-01-30T06:28:04;98916.81;;;-6.48;100.00
29045;BME280;16133;49.486;12.176;2024-01-30T06:30:29;98917.63;;;-6.47;100.00
29045;BME280;16133;49.486;12.176;2024-01-30T06:32:54;98928.81;;;-6.47;100.00
29045;BME280;16133;49.486;12.176;2024-01-30T06:35:20;98923.56;;;-6.44;100.00
29045;BME280;16133;49.486;12.176;2024-01-30T06:37:46;98931.31;;;-6.44;100.00
29045;BME280;16133;49.486;12.176;2024-01-30T06:40:12;98918.56;;;-6.48;100.00
29045;BME280;16133;49.486;12.176;2024-01-30T06:42:37;98929.66;;;-6.45;100.00
29045;BME280;16133;49.486;12.176;2024-01-30T06:45:03;98914.47;;;-6.58;100.00
29045;BME280;16133;49.486;12.176;2024-01-30T06:47:29;98936.47;;;-6.44;100.00
29045;BME280;16133;49.486;12.176;2024-01-30T06:49:56;98934.69;;;-6.40;100.00
29045;BME280;16133;49.486;12.176;2024-01-30T06:52:21;98939.00;;;-6.41;100.00
29045;BME280;16133;49.486;12.176;2024-01-30T06:54:47;98936.44;;;-6.41;100.00
29045;BME280;16133;49.486;12.176;2024-01-30T06:57:12;98935.59;;;-6.41;100.00
29045;BME280;16133;49.486;12.176;2024-01-30T06:59:39;98943.28;;;-6.40;100.00
29045;BME280;16133;49.486;12.176;2024-01-30T07:02:09;98940.63;;;-6.37;100.00
29045;BME280;16133;49.486;12.176;2024-01-30T07:04:36;98943.13;;;-6.34;100.00
29045;BME280;16133;49.486;12.176;2024-01-30T07:07:02;98936.16;;;-6.30;100.00
29045;BME280;16133;49.486;12.176;2024-01-30T07:09:30;98935.19;;;-6.26;100.00
29045;BME280;16133;49.486;12.176;2024-01-30T07:11:55;98940.16;;;-6.18;100.00
29045;BME280;16133;49.486;12.176;2024-01-30T07:14:23;98940.81;;;-6.10;100.00
29045;BME280;16133;49.486;12.176;2024-01-30T07:16:48;98941.47;;;-6.02;100.00
29045;BME280;16133;49.486;12.176;2024-01-30T07:19:15;98932.75;;;-5.98;100.00
29045;BME280;16133;49.486;12.176;2024-01-30T07:21:40;98941.81;;;-5.85;100.00
29045;BME280;16133;49.486;12.176;2024-01-30T07:24:06;98944.94;;;-5.74;100.00
29045;BME280;16133;49.486;12.176;2024-01-30T07:26:31;98943.72;;;-5.61;100.00
29045;BME280;16133;49.486;12.176;2024-01-30T07:28:57;98944.25;;;-5.48;100.00
29045;BME280;16133;49.486;12.176;2024-01-30T07:31:22;98946.53;;;-5.38;100.00
29045;BME280;16133;49.486;12.176;2024-01-30T07:33:48;98947.06;;;-5.26;100.00
29045;BME280;16133;49.486;12.176;2024-01-30T07:36:13;98939.03;;;-5.17;100.00
29045;BME280;16133;49.486;12.176;2024-01-30T07:38:39;98940.34;;;-5.04;100.00
29045;BME280;16133;49.486;12.176;2024-01-30T07:41:05;98938.34;;;-4.95;100.00
29045;BME280;16133;49.486;12.176;2024-01-30T07:43:30;98945.88;;;-4.87;100.00
29045;BME280;16133;49.486;12.176;2024-01-30T07:45:56;98941.13;;;-4.74;100.00
29045;BME280;16133;49.486;12.176;2024-01-30T07:48:21;98944.31;;;-4.66;100.00
29045;BME280;16133;49.486;12.176;2024-01-30T07:50:47;98942.31;;;-4.57;100.00
29045;BME280;16133;49.486;12.176;2024-01-30T07:53:12;98952.34;;;-4.48;100.00
29045;BME280;16133;49.486;12.176;2024-01-30T07:55:37;98952.97;;;-4.40;100.00
29045;BME280;16133;49.486;12.176;2024-01-30T07:58:03;98951.78;;;-4.29;100.00
29045;BME280;16133;49.486;12.176;2024-01-30T08:00:29;98954.94;;;-4.21;100.00
29045;BME280;16133;49.486;12.176;2024-01-30T08:02:55;98949.47;;;-4.12;100.00
29045;BME280;16133;49.486;12.176;2024-01-30T08:05:21;98948.25;;;-4.02;100.00
29045;BME280;16133;49.486;12.176;2024-01-30T08:07:48;98939.19;;;-3.91;100.00
29045;BME280;16133;49.486;12.176;2024-01-30T08:10:14;98944.97;;;-3.82;100.00
29045;BME280;16133;49.486;12.176;2024-01-30T08:12:39;98946.41;;;-3.74;100.00
29045;BME280;16133;49.486;12.176;2024-01-30T08:15:05;98947.88;;;-3.67;100.00
29045;BME280;16133;49.486;12.176;2024-01-30T08:17:30;98945.00;;;-3.59;100.00
29045;BME280;16133;49.486;12.176;2024-01-30T08:19:59;98955.06;;;-3.50;100.00
29045;BME280;16133;49.486;12.176;2024-01-30T08:22:24;98947.84;;;-3.42;100.00
29045;BME280;16133;49.486;12.176;2024-01-30T08:24:50;98942.31;;;-3.33;100.00
29045;BME280;16133;49.486;12.176;2024-01-30T08:27:15;98948.00;;;-3.23;100.00
29045;BME280;16133;49.486;12.176;2024-01-30T08:29:41;98946.84;;;-3.15;100.00
29045;BME280;16133;49.486;12.176;2024-01-30T08:32:06;98947.31;;;-3.05;100.00
29045;BME280;16133;49.486;12.176;2024-01-30T08:34:32;98954.69;;;-2.95;100.00
29045;BME280;16133;49.486;12.176;2024-01-30T08:36:57;98951.75;;;-2.85;100.00
29045;BME280;16133;49.486;12.176;2024-01-30T08:39:23;98950.47;;;-2.75;100.00
29045;BME280;16133;49.486;12.176;2024-01-30T08:41:48;98945.66;;;-2.63;100.00
29045;BME280;16133;49.486;12.176;2024-01-30T08:44:13;98949.56;;;-2.53;100.00
29045;BME280;16133;49.486;12.176;2024-01-30T08:46:39;98948.22;;;-2.41;100.00
29045;BME280;16133;49.486;12.176;2024-01-30T08:49:04;98952.16;;;-2.31;100.00
29045;BME280;16133;49.486;12.176;2024-01-30T08:51:30;98946.56;;;-2.22;100.00
29045;BME280;16133;49.486;12.176;2024-01-30T08:53:55;98941.84;;;-2.12;100.00
29045;BME280;16133;49.486;12.176;2024-01-30T08:56:21;98940.56;;;-2.02;100.00
29045;BME280;16133;49.486;12.176;2024-01-30T08:58:46;98934.06;;;-1.92;100.00
29045;BME280;16133;49.486;12.176;2024-01-30T09:01:11;98942.25;;;-1.81;100.00
29045;BME280;16133;49.486;12.176;2024-01-30T09:03:37;98931.44;;;-1.72;100.00
29045;BME280;16133;49.486;12.176;2024-01-30T09:06:08;98932.59;;;-1.59;100.00
29045;BME280;16133;49.486;12.176;2024-01-30T09:08:33;98930.44;;;-1.49;100.00
29045;BME280;16133;49.486;12.176;2024-01-30T09:10:59;98922.06;;;-1.37;100.00
29045;BME280;16133;49.486;12.176;2024-01-30T09:13:24;98918.97;;;-1.26;100.00
29045;BME280;16133;49.486;12.176;2024-01-30T09:15:50;98923.56;;;-1.13;100.00
29045;BME280;16133;49.486;12.176;2024-01-30T09:18:18;98930.88;;;-1.02;100.00
29045;BME280;16133;49.486;12.176;2024-01-30T09:20:43;98920.97;;;-0.94;100.00
29045;BME280;16133;49.486;12.176;2024-01-30T09:23:12;98917.00;;;-0.84;100.00
29045;BME280;16133;49.486;12.176;2024-01-30T09:25:38;98917.44;;;-0.74;100.00
29045;BME280;16133;49.486;12.176;2024-01-30T09:28:03;98908.25;;;-0.64;100.00
29045;BME280;16133;49.486;12.176;2024-01-30T09:30:29;98914.84;;;-0.57;100.00
29045;BME280;16133;49.486;12.176;2024-01-30T09:32:54;98915.41;;;-0.51;100.00
29045;BME280;16133;49.486;12.176;2024-01-30T09:35:19;98911.59;;;-0.43;100.00
29045;BME280;16133;49.486;12.176;2024-01-30T09:37:45;98919.88;;;-0.35;100.00
29045;BME280;16133;49.486;12.176;2024-01-30T09:40:10;98918.56;;;-0.27;100.00
29045;BME280;16133;49.486;12.176;2024-01-30T09:42:36;98925.94;;;-0.18;100.00
29045;BME280;16133;49.486;12.176;2024-01-30T09:45:05;98928.25;;;-0.12;100.00
29045;BME280;16133;49.486;12.176;2024-01-30T09:47:40;98926.81;;;0.00;100.00
29045;BME280;16133;49.486;12.176;2024-01-30T09:50:08;98908.66;;;-0.03;100.00
29045;BME280;16133;49.486;12.176;2024-01-30T09:52:34;98934.00;;;0.12;100.00
29045;BME280;16133;49.486;12.176;2024-01-30T09:55:00;98939.66;;;0.20;100.00
29045;BME280;16133;49.486;12.176;2024-01-30T09:57:26;98934.16;;;0.26;100.00
29045;BME280;16133;49.486;12.176;2024-01-30T09:59:52;98933.81;;;0.32;100.00
29045;BME280;16133;49.486;12.176;2024-01-30T10:02:19;98927.06;;;0.45;100.00
29045;BME280;16133;49.486;12.176;2024-01-30T10:04:47;98928.50;;;0.51;100.00
29045;BME280;16133;49.486;12.176;2024-01-30T10:07:14;98943.69;;;0.60;100.00
29045;BME280;16133;49.486;12.176;2024-01-30T10:09:39;98932.91;;;0.66;100.00
29045;BME280;16133;49.486;12.176;2024-01-30T10:12:05;98928.06;;;0.76;100.00
29045;BME280;16133;49.486;12.176;2024-01-30T10:14:31;98926.69;;;0.84;100.00
29045;BME280;16133;49.486;12.176;2024-01-30T10:16:57;98919.97;;;0.96;100.00
29045;BME280;16133;49.486;12.176;2024-01-30T10:19:23;98914.06;;;1.08;100.00
29045;BME280;16133;49.486;12.176;2024-01-30T10:21:48;98909.88;;;1.21;100.00
29045;BME280;16133;49.486;12.176;2024-01-30T10:24:14;98907.59;;;1.31;100.00
29045;BME280;16133;49.486;12.176;2024-01-30T10:26:39;98906.06;;;1.42;100.00
29045;BME280;16133;49.486;12.176;2024-01-30T10:29:05;98900.50;;;1.49;100.00
29045;BME280;16133;49.486;12.176;2024-01-30T10:31:30;98906.88;;;1.59;100.00
29045;BME280;16133;49.486;12.176;2024-01-30T10:33:56;98902.06;;;1.67;100.00
29045;BME280;16133;49.486;12.176;2024-01-30T10:36:28;98903.19;;;1.77;100.00
29045;BME280;16133;49.486;12.176;2024-01-30T10:38:55;98887.63;;;1.89;100.00
29045;BME280;16133;49.486;12.176;2024-01-30T10:41:26;98881.69;;;2.02;100.00
29045;BME280;16133;49.486;12.176;2024-01-30T10:44:01;98880.84;;;2.15;100.00
29045;BME280;16133;49.486;12.176;2024-01-30T10:46:30;98879.94;;;2.30;100.00
29045;BME280;16133;49.486;12.176;2024-01-30T10:48:57;98881.47;;;2.49;100.00
29045;BME280;16133;49.486;12.176;2024-01-30T10:51:26;98877.44;;;2.71;100.00
29045;BME280;16133;49.486;12.176;2024-01-30T10:53:52;98867.22;;;2.95;100.00
29045;BME280;16133;49.486;12.176;2024-01-30T10:56:20;98870.53;;;3.11;100.00
29045;BME280;16133;49.486;12.176;2024-01-30T10:58:47;98862.22;;;3.31;100.00
29045;BME280;16133;49.486;12.176;2024-01-30T11:01:13;98870.50;;;3.52;100.00
29045;BME280;16133;49.486;12.176;2024-01-30T11:03:41;98861.13;;;3.75;100.00
29045;BME280;16133;49.486;12.176;2024-01-30T11:06:10;98858.72;;;3.97;100.00
29045;BME280;16133;49.486;12.176;2024-01-30T11:08:36;98845.19;;;4.16;100.00
29045;BME280;16133;49.486;12.176;2024-01-30T11:11:01;98849.31;;;4.32;100.00
29045;BME280;16133;49.486;12.176;2024-01-30T11:13:29;98844.34;;;4.53;100.00
29045;BME280;16133;49.486;12.176;2024-01-30T11:15:55;98835.28;;;4.70;100.00
29045;BME280;16133;49.486;12.176;2024-01-30T11:18:24;98838.50;;;4.86;100.00
29045;BME280;16133;49.486;12.176;2024-01-30T11:20:50;98833.94;;;5.01;100.00
29045;BME280;16133;49.486;12.176;2024-01-30T11:23:16;98834.53;;;5.17;100.00
29045;BME280;16133;49.486;12.176;2024-01-30T11:25:43;98832.22;;;5.36;100.00
29045;BME280;16133;49.486;12.176;2024-01-30T11:28:14;98834.56;;;5.52;100.00
29045;BME280;16133;49.486;12.176;2024-01-30T11:30:43;98830.06;;;5.65;100.00
29045;BME280;16133;49.486;12.176;2024-01-30T11:33:13;98832.03;;;5.74;100.00
29045;BME280;16133;49.486;12.176;2024-01-30T11:35:40;98836.88;;;5.91;100.00
29045;BME280;16133;49.486;12.176;2024-01-30T11:38:08;98839.44;;;6.04;100.00
29045;BME280;16133;49.486;12.176;2024-01-30T11:40:34;98835.88;;;6.16;100.00
29045;BME280;16133;49.486;12.176;2024-01-30T11:43:01;98851.81;;;6.25;100.00
29045;BME280;16133;49.486;12.176;2024-01-30T11:45:27;98850.88;;;6.38;100.00
29045;BME280;16133;49.486;12.176;2024-01-30T11:47:53;98859.63;;;6.49;100.00
29045;BME280;16133;49.486;12.176;2024-01-30T11:50:19;98871.53;;;6.55;100.00
29045;BME280;16133;49.486;12.176;2024-01-30T11:52:44;98870.78;;;6.53;100.00
29045;BME280;16133;49.486;12.176;2024-01-30T11:55:10;98872.38;;;6.66;100.00
29045;BME280;16133;49.486;12.176;2024-01-30T11:57:35;98865.50;;;6.75;100.00
29045;BME280;16133;49.486;12.176;2024-01-30T12:00:03;98863.84;;;6.85;100.00
29045;BME280;16133;49.486;12.176;2024-01-30T12:02:35;98861.56;;;6.92;100.00
29045;BME280;16133;49.486;12.176;2024-01-30T12:05:06;98862.16;;;6.95;100.00
29045;BME280;16133;49.486;12.176;2024-01-30T12:07:32;98859.50;;;6.95;100.00
29045;BME280;16133;49.486;12.176;2024-01-30T12:09:58;98863.59;;;6.99;100.00
29045;BME280;16133;49.486;12.176;2024-01-30T12:12:27;98854.72;;;7.00;100.00
29045;BME280;16133;49.486;12.176;2024-01-30T12:14:53;98844.88;;;7.02;100.00
29045;BME280;16133;49.486;12.176;2024-01-30T12:17:30;98843.41;;;7.09;100.00
29045;BME280;16133;49.486;12.176;2024-01-30T12:20:06;98843.88;;;7.14;99.34
29045;BME280;16133;49.486;12.176;2024-01-30T12:22:36;98848.22;;;7.15;92.74
29045;BME280;16133;49.486;12.176;2024-01-30T12:25:05;98850.97;;;7.14;90.93
29045;BME280;16133;49.486;12.176;2024-01-30T12:27:30;98848.91;;;7.17;90.58
29045;BME280;16133;49.486;12.176;2024-01-30T12:29:59;98842.31;;;7.23;87.95
29045;BME280;16133;49.486;12.176;2024-01-30T12:32:24;98843.16;;;7.24;86.50
29045;BME280;16133;49.486;12.176;2024-01-30T12:34:50;98847.13;;;7.18;85.18
29045;BME280;16133;49.486;12.176;2024-01-30T12:37:15;98842.69;;;7.18;86.95
29045;BME280;16133;49.486;12.176;2024-01-30T12:39:47;98843.63;;;7.17;83.83